Time;durP1;ratioP1;P1;durP2;ratioP2;P2;SDS_P1;SDS_P2;PMS_P1;PMS_P2;Temp;Humidity;BMP_temperature;BMP_pressure;BME280_temperature;BME280_humidity;BME280_pressure;Samples;Min_cycle;Max_cycle;Signal;HPM_P1;HPM_P2
2024/02/13 00:01:07;;;;;;;14.93;3.87;;;;;;;3.57;100.00;100391.91;5079721;28;20794;-80
2024/02/13 00:03:40;;;;;;;14.93;3.80;;;;;;;3.61;100.00;100399.50;5074218;28;20423;-80
2024/02/13 00:06:14;;;;;;;15.15;3.92;;;;;;;3.61;100.00;100396.81;5075085;28;20905;-81
2024/02/13 00:08:48;;;;;;;11.10;3.50;;;;;;;3.58;100.00;100395.44;5080265;28;20422;-80
2024/02/13 00:11:18;;;;;;;15.40;3.88;;;;;;;3.51;100.00;100398.25;5076489;28;20426;-80
2024/02/13 00:13:51;;;;;;;10.13;3.50;;;;;;;3.51;100.00;100409.00;5077759;28;20421;-80
2024/02/13 00:16:20;;;;;;;12.93;3.83;;;;;;;3.55;100.00;100403.97;5075057;28;20428;-80
2024/02/13 00:18:48;;;;;;;14.93;4.15;;;;;;;3.62;100.00;100411.88;5089674;28;20439;-81
2024/02/13 00:21:22;;;;;;;14.13;4.70;;;;;;;3.62;100.00;100417.28;5079513;28;20440;-81
2024/02/13 00:23:57;;;;;;;11.85;4.55;;;;;;;3.57;100.00;100421.50;5089604;28;20429;-80
2024/02/13 00:26:30;;;;;;;16.00;4.60;;;;;;;3.64;100.00;100424.06;5076357;28;20419;-79
2024/02/13 00:29:04;;;;;;;19.48;5.07;;;;;;;3.70;100.00;100424.97;5075118;28;20435;-81
2024/02/13 00:31:38;;;;;;;16.60;5.32;;;;;;;3.71;100.00;100422.03;5076095;28;20933;-80
2024/02/13 00:34:11;;;;;;;16.52;5.65;;;;;;;3.72;100.00;100430.94;5077445;28;20427;-80
2024/02/13 00:36:47;;;;;;;20.00;6.47;;;;;;;3.73;100.00;100430.69;5076899;28;20427;-80
2024/02/13 00:39:21;;;;;;;17.13;5.75;;;;;;;3.67;100.00;100436.22;5075041;28;20431;-80
2024/02/13 00:41:55;;;;;;;12.50;5.35;;;;;;;3.64;100.00;100434.00;5074198;28;20421;-81
2024/02/13 00:44:25;;;;;;;16.77;5.67;;;;;;;3.60;100.00;100447.13;5088482;28;20445;-81
2024/02/13 00:46:58;;;;;;;15.95;5.50;;;;;;;3.66;100.00;100451.56;5074265;28;20419;-80
2024/02/13 00:49:31;;;;;;;15.48;5.80;;;;;;;3.67;100.00;100457.75;5073589;28;20426;-81
2024/02/13 00:52:01;;;;;;;15.63;5.80;;;;;;;3.65;100.00;100455.28;5084426;28;20751;-78
2024/02/13 00:54:35;;;;;;;18.52;6.10;;;;;;;3.72;100.00;100457.84;5081588;28;20448;-80
2024/02/13 00:57:09;;;;;;;15.55;5.80;;;;;;;3.66;100.00;100462.31;5079158;28;20417;-81
2024/02/13 00:59:43;;;;;;;16.60;5.75;;;;;;;3.64;100.00;100461.72;5077536;28;20421;-80
2024/02/13 01:02:11;;;;;;;16.38;5.70;;;;;;;3.63;100.00;100461.97;5080857;28;20426;-80
2024/02/13 01:04:45;;;;;;;15.85;5.70;;;;;;;3.63;100.00;100467.34;5081326;28;20429;-80
2024/02/13 01:07:13;;;;;;;16.98;5.55;;;;;;;3.66;100.00;100467.69;5077911;28;20419;-80
2024/02/13 01:09:48;;;;;;;15.10;5.10;;;;;;;3.69;100.00;100469.09;5077739;28;20918;-79
2024/02/13 01:12:16;;;;;;;17.40;4.97;;;;;;;3.64;100.00;100474.38;5078422;28;20415;-79
2024/02/13 01:14:49;;;;;;;12.77;4.88;;;;;;;3.57;100.00;100472.63;5081701;28;20422;-80
2024/02/13 01:17:22;;;;;;;14.02;5.32;;;;;;;3.55;100.00;100482.00;5077180;28;20451;-80
2024/02/13 01:19:57;;;;;;;14.57;5.65;;;;;;;3.53;100.00;100484.91;5096971;28;20420;-80
2024/02/13 01:22:30;;;;;;;16.10;5.65;;;;;;;3.53;100.00;100487.59;5079057;28;20427;-80
2024/02/13 01:24:59;;;;;;;19.17;5.35;;;;;;;3.58;100.00;100498.47;5077170;28;20437;-81
2024/02/13 01:27:33;;;;;;;13.50;4.97;;;;;;;3.61;100.00;100491.00;5077731;28;20406;-80
2024/02/13 01:30:09;;;;;;;13.68;5.18;;;;;;;3.62;100.00;100496.16;5093243;28;21022;-78
2024/02/13 01:32:42;;;;;;;11.95;5.25;;;;;;;3.64;100.00;100501.28;5076211;28;20427;-81
2024/02/13 01:35:16;;;;;;;15.23;5.03;;;;;;;3.60;100.00;100502.81;5077775;28;20426;-80
2024/02/13 01:37:50;;;;;;;13.15;5.22;;;;;;;3.74;100.00;100505.00;5077854;28;20430;-80
2024/02/13 01:40:24;;;;;;;15.77;5.40;;;;;;;3.64;100.00;100512.06;5080129;28;20759;-79
2024/02/13 01:42:59;;;;;;;15.25;5.35;;;;;;;3.66;100.00;100505.38;5080822;28;20420;-80
2024/02/13 01:45:33;;;;;;;14.45;5.18;;;;;;;3.72;100.00;100509.00;5097919;27;20428;-80
2024/02/13 01:48:07;;;;;;;13.55;5.78;;;;;;;3.62;100.00;100511.44;5079004;28;20437;-80
2024/02/13 01:50:40;;;;;;;18.27;5.55;;;;;;;3.66;100.00;100512.63;5090942;28;20427;-80
2024/02/13 01:53:09;;;;;;;14.82;5.28;;;;;;;3.56;100.00;100508.69;5078573;28;20774;-79
2024/02/13 01:55:44;;;;;;;14.07;6.07;;;;;;;3.64;100.00;100512.84;5078265;28;20423;-80
2024/02/13 01:58:19;;;;;;;16.30;5.75;;;;;;;3.61;100.00;100512.53;5078264;28;20419;-80
2024/02/13 02:00:59;;;;;;;14.50;5.80;;;;;;;3.50;100.00;100512.31;5079347;28;20429;-80
2024/02/13 02:03:32;;;;;;;16.55;6.20;;;;;;;3.72;100.00;100517.06;5081371;28;20430;-80
2024/02/13 02:06:05;;;;;;;14.85;6.10;;;;;;;3.58;100.00;100514.63;5081248;28;20435;-80
2024/02/13 02:08:39;;;;;;;16.58;6.63;;;;;;;3.67;100.00;100509.69;5079140;28;20428;-80
2024/02/13 02:11:15;;;;;;;17.02;6.55;;;;;;;3.56;100.00;100508.69;5080323;28;20426;-79
2024/02/13 02:13:49;;;;;;;16.05;6.68;;;;;;;3.44;100.00;100510.56;5094960;28;20948;-80
2024/02/13 02:16:17;;;;;;;13.95;6.45;;;;;;;3.49;100.00;100507.16;5093061;27;22243;-80
2024/02/13 02:18:50;;;;;;;16.98;6.65;;;;;;;3.37;100.00;100513.38;5080196;28;20436;-80
2024/02/13 02:21:18;;;;;;;14.32;6.80;;;;;;;3.24;100.00;100513.63;5077502;28;20421;-78
2024/02/13 02:23:47;;;;;;;16.63;7.00;;;;;;;3.27;100.00;100513.16;5092816;28;20425;-79
2024/02/13 02:26:16;;;;;;;18.67;7.80;;;;;;;3.16;100.00;100519.34;5078227;28;20888;-80
2024/02/13 02:28:49;;;;;;;19.38;7.78;;;;;;;3.17;100.00;100527.19;5083121;28;20430;-80
2024/02/13 02:31:22;;;;;;;15.45;7.28;;;;;;;3.08;100.00;100533.16;5076033;28;21180;-80
2024/02/13 02:33:51;;;;;;;17.50;7.95;;;;;;;3.02;100.00;100529.53;5077482;28;20412;-80
2024/02/13 02:36:24;;;;;;;18.95;7.88;;;;;;;3.01;100.00;100533.25;5077780;28;20424;-80
2024/02/13 02:38:57;;;;;;;17.67;7.90;;;;;;;3.04;100.00;100536.31;5079388;28;20423;-79
2024/02/13 02:41:33;;;;;;;18.77;7.70;;;;;;;2.97;100.00;100542.84;5078606;28;20782;-80
2024/02/13 02:44:02;;;;;;;15.93;7.78;;;;;;;2.82;100.00;100549.50;5080529;28;20428;-79
2024/02/13 02:46:35;;;;;;;18.38;7.80;;;;;;;2.79;100.00;100541.91;5077550;28;20432;-80
2024/02/13 02:49:09;;;;;;;20.10;7.40;;;;;;;2.68;100.00;100542.69;5076665;28;20430;-80
2024/02/13 02:51:43;;;;;;;19.47;8.20;;;;;;;2.68;100.00;100558.81;5076993;28;20424;-80
2024/02/13 02:54:16;;;;;;;18.60;7.80;;;;;;;2.78;100.00;100553.69;5079638;28;21051;-79
2024/02/13 02:56:53;;;;;;;22.42;7.47;;;;;;;2.86;100.00;100544.50;5078204;28;20414;-80
2024/02/13 02:59:26;;;;;;;17.10;6.87;;;;;;;2.96;100.00;100552.78;5091738;28;20465;-80
2024/02/13 03:02:01;;;;;;;15.43;6.95;;;;;;;2.78;100.00;100560.94;5074672;28;20428;-79
2024/02/13 03:04:35;;;;;;;15.77;7.07;;;;;;;2.65;100.00;100559.25;5073464;28;20422;-79
2024/02/13 03:07:09;;;;;;;16.67;6.32;;;;;;;2.68;100.00;100556.13;5076451;28;21053;-80
2024/02/13 03:09:42;;;;;;;15.93;6.43;;;;;;;2.65;100.00;100557.41;5076825;28;20979;-80
2024/02/13 03:12:11;;;;;;;20.20;6.10;;;;;;;2.60;100.00;100565.34;5092579;28;20437;-80
2024/02/13 03:14:45;;;;;;;17.20;5.70;;;;;;;2.52;100.00;100562.97;5075340;28;20445;-80
2024/02/13 03:17:13;;;;;;;14.40;5.90;;;;;;;2.49;100.00;100574.19;5075247;28;20430;-80
2024/02/13 03:19:46;;;;;;;18.98;6.10;;;;;;;2.65;100.00;100572.69;5077668;28;21046;-79
2024/02/13 03:22:20;;;;;;;15.13;5.88;;;;;;;2.71;100.00;100577.19;5081419;28;20429;-81
2024/02/13 03:24:53;;;;;;;16.48;5.88;;;;;;;2.91;100.00;100578.72;5076995;28;20441;-79
2024/02/13 03:27:28;;;;;;;14.23;5.33;;;;;;;2.72;100.00;100584.16;5078694;28;20428;-81
2024/02/13 03:30:02;;;;;;;16.20;5.75;;;;;;;2.77;100.00;100570.06;5073940;28;20418;-80
2024/02/13 03:32:35;;;;;;;16.03;5.67;;;;;;;2.75;100.00;100577.50;5076427;28;20526;-80
2024/02/13 03:35:09;;;;;;;15.88;5.32;;;;;;;2.83;100.00;100578.03;5076160;28;20428;-79
2024/02/13 03:37:37;;;;;;;15.82;5.10;;;;;;;2.80;100.00;100580.34;5081190;28;20441;-80
2024/02/13 03:40:11;;;;;;;14.07;5.30;;;;;;;2.80;100.00;100583.03;5077998;28;20442;-80
2024/02/13 03:42:46;;;;;;;10.85;4.97;;;;;;;2.82;100.00;100586.31;5075603;28;20427;-80
2024/02/13 03:45:14;;;;;;;14.03;5.20;;;;;;;2.79;100.00;100595.66;5077055;28;20423;-80
2024/02/13 03:47:43;;;;;;;14.75;5.35;;;;;;;2.80;100.00;100596.47;5080136;28;20987;-80
2024/02/13 03:50:16;;;;;;;14.88;5.03;;;;;;;2.80;100.00;100599.97;5075377;28;20418;-80
2024/02/13 03:52:44;;;;;;;16.85;5.30;;;;;;;2.83;100.00;100601.38;5076058;28;20409;-79
2024/02/13 03:55:19;;;;;;;15.35;5.20;;;;;;;2.84;100.00;100600.31;5075766;28;20418;-80
2024/02/13 03:57:49;;;;;;;13.90;5.10;;;;;;;2.83;100.00;100602.22;5074897;28;20423;-80
2024/02/13 04:00:22;;;;;;;13.80;4.78;;;;;;;2.77;100.00;100599.63;5077135;28;20422;-79
2024/02/13 04:02:55;;;;;;;13.23;4.50;;;;;;;2.64;100.00;100603.31;5085229;28;20445;-80
2024/02/13 04:05:24;;;;;;;13.00;4.70;;;;;;;2.72;100.00;100605.66;5076710;28;20435;-80
2024/02/13 04:07:54;;;;;;;12.10;4.55;;;;;;;2.71;100.00;100618.28;5077186;28;20907;-79
2024/02/13 04:10:28;;;;;;;16.38;4.90;;;;;;;2.79;100.00;100613.63;5075451;28;20461;-80
2024/02/13 04:13:06;;;;;;;14.88;5.15;;;;;;;2.71;100.00;100610.22;5075909;28;20431;-79
2024/02/13 04:15:39;;;;;;;14.50;4.72;;;;;;;2.65;100.00;100607.63;5088654;28;20447;-79
2024/02/13 04:18:14;;;;;;;12.05;5.05;;;;;;;2.77;100.00;100608.50;5075772;28;20422;-78
2024/02/13 04:20:47;;;;;;;12.32;4.75;;;;;;;2.72;100.00;100613.72;5075716;28;20446;-79
2024/02/13 04:23:21;;;;;;;13.67;4.70;;;;;;;2.78;100.00;100609.31;5076802;28;20415;-80
2024/02/13 04:25:54;;;;;;;12.13;4.95;;;;;;;2.83;100.00;100612.97;5076386;28;20429;-80
2024/02/13 04:28:23;;;;;;;13.63;5.22;;;;;;;2.73;100.00;100623.44;5081351;28;20434;-79
2024/02/13 04:30:57;;;;;;;15.55;5.55;;;;;;;2.78;100.00;100620.06;5080798;28;20436;-80
2024/02/13 04:33:30;;;;;;;12.43;5.28;;;;;;;2.76;100.00;100622.97;5094950;28;20423;-80
2024/02/13 04:35:58;;;;;;;14.25;6.00;;;;;;;2.91;100.00;100629.81;5078827;28;20436;-80
2024/02/13 04:38:32;;;;;;;15.77;6.15;;;;;;;2.84;100.00;100622.63;5081111;28;20439;-80
2024/02/13 04:41:05;;;;;;;18.37;6.17;;;;;;;2.74;100.00;100625.06;5080535;28;20422;-80
2024/02/13 04:43:43;;;;;;;14.77;6.15;;;;;;;2.59;100.00;100619.31;5082385;28;20455;-80
2024/02/13 04:46:11;;;;;;;19.42;6.90;;;;;;;2.50;100.00;100626.84;5078879;28;20436;-80
2024/02/13 04:48:44;;;;;;;18.93;6.90;;;;;;;2.53;100.00;100632.59;5078436;28;20409;-80
2024/02/13 04:51:17;;;;;;;17.38;6.80;;;;;;;2.49;100.00;100635.97;5096050;28;20433;-79
2024/02/13 04:53:46;;;;;;;16.08;6.65;;;;;;;2.37;100.00;100635.91;5079467;28;20429;-79
2024/02/13 04:56:19;;;;;;;16.38;7.13;;;;;;;2.34;100.00;100631.00;5083318;28;20433;-79
2024/02/13 04:58:55;;;;;;;17.38;7.47;;;;;;;2.31;100.00;100629.56;5080851;28;20413;-80
2024/02/13 05:01:25;;;;;;;16.88;6.95;;;;;;;2.39;100.00;100631.16;5094077;28;20427;-79
2024/02/13 05:09:34;;;;;;;17.33;7.88;;;;;;;2.15;100.00;100640.94;5082132;28;20421;-80
2024/02/13 05:12:08;;;;;;;17.75;7.53;;;;;;;2.27;100.00;100641.81;5081764;28;20888;-80
2024/02/13 05:14:37;;;;;;;19.25;6.97;;;;;;;2.24;100.00;100636.06;5082095;28;20411;-79
2024/02/13 05:17:11;;;;;;;14.55;6.70;;;;;;;2.13;100.00;100640.34;5081483;28;20420;-80
2024/02/13 05:19:39;;;;;;;18.13;7.38;;;;;;;2.04;100.00;100637.97;5076602;28;20429;-79
2024/02/13 05:22:14;;;;;;;17.83;7.45;;;;;;;2.00;100.00;100638.63;5077535;28;20431;-80
2024/02/13 05:24:48;;;;;;;15.43;7.32;;;;;;;2.03;100.00;100649.75;5076597;28;20423;-80
2024/02/13 05:27:16;;;;;;;18.48;7.90;;;;;;;1.96;100.00;100649.00;5079954;28;20765;-80
2024/02/13 05:29:50;;;;;;;17.83;7.32;;;;;;;1.95;100.00;100644.66;5076168;28;20439;-80
2024/02/13 05:32:24;;;;;;;17.07;7.80;;;;;;;1.89;100.00;100652.78;5074718;28;20915;-79
2024/02/13 05:34:57;;;;;;;18.88;7.32;;;;;;;1.91;100.00;100650.72;5076653;28;20426;-80
2024/02/13 05:37:32;;;;;;;16.20;7.32;;;;;;;1.88;100.00;100651.97;5076468;28;20414;-80
2024/02/13 05:40:07;;;;;;;20.83;7.97;;;;;;;1.78;100.00;100651.66;5082601;28;20429;-79
2024/02/13 05:42:41;;;;;;;17.23;7.85;;;;;;;1.80;100.00;100650.38;5082570;28;20853;-80
2024/02/13 05:45:15;;;;;;;19.00;7.47;;;;;;;1.79;100.00;100659.47;5074765;28;20514;-80
2024/02/13 05:47:49;;;;;;;18.65;8.07;;;;;;;1.73;100.00;100659.53;5081271;28;20904;-78
2024/02/13 05:50:23;;;;;;;21.25;8.00;;;;;;;1.72;100.00;100660.59;5076754;28;20455;-79
2024/02/13 05:52:52;;;;;;;19.52;7.65;;;;;;;1.70;100.00;100658.97;5076622;28;20429;-79
2024/02/13 05:55:26;;;;;;;18.58;8.27;;;;;;;1.76;100.00;100656.44;5074728;28;20897;-80
2024/02/13 05:57:59;;;;;;;19.93;7.80;;;;;;;1.60;100.00;100666.69;5075608;28;20429;-79
2024/02/13 06:00:29;;;;;;;18.45;7.72;;;;;;;1.61;100.00;100672.88;5074592;28;20458;-79
2024/02/13 06:03:05;;;;;;;18.27;7.90;;;;;;;1.59;100.00;100669.56;5074800;28;20410;-79
2024/02/13 06:05:38;;;;;;;18.63;8.18;;;;;;;1.56;100.00;100673.53;5073703;28;20426;-77
2024/02/13 06:08:07;;;;;;;19.80;7.85;;;;;;;1.52;100.00;100675.84;5075989;28;20422;-78
2024/02/13 06:10:41;;;;;;;18.07;8.00;;;;;;;1.48;100.00;100684.56;5077678;28;20426;-79
2024/02/13 06:13:09;;;;;;;20.38;8.73;;;;;;;1.69;100.00;100673.41;5081272;28;22202;-79
2024/02/13 06:15:39;;;;;;;22.25;9.05;;;;;;;1.60;100.00;100681.94;5072935;28;20427;-77
2024/02/13 06:18:12;;;;;;;19.30;8.60;;;;;;;1.59;100.00;100681.16;5081924;28;20423;-79
2024/02/13 06:20:41;;;;;;;20.80;9.07;;;;;;;1.47;100.00;100691.75;5074381;28;20422;-78
2024/02/13 06:23:09;;;;;;;20.02;9.40;;;;;;;1.58;100.00;100692.09;5077529;28;20425;-78
2024/02/13 06:25:42;;;;;;;20.55;9.27;;;;;;;1.60;100.00;100693.53;5076311;28;20841;-78
2024/02/13 06:28:16;;;;;;;22.95;9.55;;;;;;;1.54;100.00;100699.75;5073931;28;20425;-80
2024/02/13 06:30:46;;;;;;;20.55;9.32;;;;;;;1.48;100.00;100695.28;5074095;28;20425;-80
2024/02/13 06:33:14;;;;;;;22.48;8.85;;;;;;;1.43;100.00;100698.59;5072684;28;20951;-78
2024/02/13 06:35:43;;;;;;;25.30;9.45;;;;;;;1.43;100.00;100695.91;5071925;28;20433;-79
2024/02/13 06:38:11;;;;;;;20.50;8.85;;;;;;;1.44;100.00;100694.88;5077493;28;20939;-78
2024/02/13 06:40:44;;;;;;;22.88;9.80;;;;;;;1.60;100.00;100706.09;5079887;28;20437;-80
2024/02/13 06:43:13;;;;;;;23.58;9.02;;;;;;;1.43;100.00;100709.31;5076409;28;20431;-79
2024/02/13 06:45:41;;;;;;;26.05;8.80;;;;;;;1.48;100.00;100706.81;5078965;28;20434;-79
2024/02/13 06:48:17;;;;;;;26.08;9.73;;;;;;;1.60;100.00;100714.16;5084204;28;20929;-79
2024/02/13 06:50:50;;;;;;;24.35;9.85;;;;;;;1.66;100.00;100714.09;5078996;28;20414;-80
2024/02/13 06:53:18;;;;;;;20.97;9.07;;;;;;;1.58;100.00;100722.41;5079872;28;20414;-80
2024/02/13 06:55:52;;;;;;;22.90;9.70;;;;;;;1.67;100.00;100718.44;5075752;28;20429;-80
2024/02/13 06:58:25;;;;;;;27.67;10.00;;;;;;;1.66;100.00;100716.78;5079070;28;20429;-79
2024/02/13 07:00:59;;;;;;;22.88;9.70;;;;;;;1.77;100.00;100725.97;5079920;28;20434;-80
2024/02/13 07:03:34;;;;;;;22.20;9.75;;;;;;;1.78;100.00;100711.53;5078640;28;20430;-80
2024/02/13 07:06:07;;;;;;;27.90;10.52;;;;;;;1.70;100.00;100722.53;5082379;28;20410;-80
2024/02/13 07:08:40;;;;;;;25.13;10.40;;;;;;;1.66;100.00;100734.75;5079549;28;20422;-80
2024/02/13 07:11:14;;;;;;;19.83;9.25;;;;;;;1.62;100.00;100728.19;5078906;28;20425;-79
2024/02/13 07:13:47;;;;;;;23.48;9.70;;;;;;;1.62;100.00;100736.22;5100364;27;20432;-79
2024/02/13 07:16:20;;;;;;;24.33;9.60;;;;;;;1.68;100.00;100740.69;5080414;28;20426;-80
2024/02/13 07:18:55;;;;;;;22.63;9.85;;;;;;;1.62;100.00;100744.28;5079622;28;21129;-80
2024/02/13 07:21:33;;;;;;;22.27;10.32;;;;;;;1.73;100.00;100748.06;5076911;28;20438;-78
2024/02/13 07:24:07;;;;;;;30.10;10.00;;;;;;;1.82;100.00;100752.13;5075524;28;20778;-79
2024/02/13 07:26:40;;;;;;;21.92;9.90;;;;;;;1.88;100.00;100753.97;5064101;28;20480;-78
2024/02/13 07:29:13;;;;;;;24.50;10.27;;;;;;;2.03;100.00;100751.75;5058718;28;20422;-78
2024/02/13 07:31:46;;;;;;;25.63;10.25;;;;;;;1.95;100.00;100756.59;5060943;28;20434;-78
2024/02/13 07:34:18;;;;;;;22.30;10.10;;;;;;;1.93;100.00;100751.41;5060065;28;20424;-78
2024/02/13 07:36:46;;;;;;;26.23;10.57;;;;;;;2.01;100.00;100747.63;5058626;28;20421;-79
2024/02/13 07:39:19;;;;;;;29.90;10.85;;;;;;;1.98;100.00;100761.50;5061588;28;20429;-78
2024/02/13 07:41:53;;;;;;;25.40;9.70;;;;;;;1.93;100.00;100759.47;5057060;28;21058;-79
2024/02/13 07:44:21;;;;;;;23.48;9.93;;;;;;;1.91;100.00;100766.13;5061074;28;20437;-79
2024/02/13 07:46:56;;;;;;;24.10;10.25;;;;;;;1.90;100.00;100761.78;5058705;28;20417;-78
2024/02/13 07:49:25;;;;;;;22.85;10.05;;;;;;;1.93;100.00;100758.66;5063955;28;20429;-79
2024/02/13 07:51:54;;;;;;;25.88;10.73;;;;;;;1.94;100.00;100754.94;5066004;28;20411;-79
2024/02/13 07:54:22;;;;;;;26.73;10.80;;;;;;;1.92;100.00;100765.91;5075563;28;20418;-79
2024/02/13 07:56:58;;;;;;;26.40;10.60;;;;;;;2.04;100.00;100768.66;5063550;28;20426;-79
2024/02/13 07:59:31;;;;;;;29.17;11.55;;;;;;;2.11;100.00;100771.28;5066726;28;20434;-80
2024/02/13 08:02:04;;;;;;;25.55;10.23;;;;;;;2.34;100.00;100773.34;5062980;28;20433;-78
2024/02/13 08:04:39;;;;;;;26.65;10.73;;;;;;;2.34;100.00;100771.47;5058146;28;20426;-78
2024/02/13 08:07:12;;;;;;;23.33;10.73;;;;;;;2.46;100.00;100768.03;5054493;28;20495;-78
2024/02/13 08:09:45;;;;;;;28.20;12.20;;;;;;;2.50;100.00;100778.13;5061186;28;20422;-79
2024/02/13 08:12:18;;;;;;;23.50;11.75;;;;;;;2.63;100.00;100779.03;5056291;28;20421;-78
2024/02/13 08:14:47;;;;;;;26.30;11.70;;;;;;;2.59;100.00;100769.75;5063408;28;20433;-79
2024/02/13 08:17:20;;;;;;;28.33;12.25;;;;;;;2.59;100.00;100772.44;5050643;28;20430;-79
2024/02/13 08:19:56;;;;;;;28.30;11.95;;;;;;;2.53;100.00;100777.66;5059980;28;20789;-79
2024/02/13 08:22:25;;;;;;;25.27;12.43;;;;;;;2.57;100.00;100778.06;5061144;28;20432;-79
2024/02/13 08:25:00;;;;;;;28.33;12.02;;;;;;;2.67;100.00;100782.91;5057708;28;20777;-78
2024/02/13 08:27:29;;;;;;;29.65;13.07;;;;;;;2.72;100.00;100777.66;5056384;28;20437;-78
2024/02/13 08:30:06;;;;;;;30.52;13.57;;;;;;;2.68;100.00;100782.66;5057526;28;21296;-79
2024/02/13 08:32:37;;;;;;;28.60;13.00;;;;;;;2.70;100.00;100794.00;5062252;28;20437;-78
2024/02/13 08:35:09;;;;;;;29.10;13.10;;;;;;;2.74;100.00;100793.56;5062418;28;20422;-80
2024/02/13 08:37:38;;;;;;;29.13;13.70;;;;;;;2.84;100.00;100789.28;5054572;28;20421;-78
2024/02/13 08:40:14;;;;;;;28.38;14.10;;;;;;;2.94;100.00;100794.16;5054332;28;20410;-78
2024/02/13 08:42:48;;;;;;;31.08;14.07;;;;;;;3.13;100.00;100792.22;5058674;28;20436;-78
2024/02/13 08:45:21;;;;;;;29.05;13.63;;;;;;;3.34;100.00;100787.41;5053955;28;20422;-79
2024/02/13 08:47:55;;;;;;;29.83;13.80;;;;;;;3.59;100.00;100798.03;5051748;28;20441;-79
2024/02/13 08:50:25;;;;;;;26.80;12.97;;;;;;;3.79;100.00;100794.19;5054650;28;20425;-78
2024/02/13 08:52:56;;;;;;;30.00;13.57;;;;;;;3.70;100.00;100804.47;5088063;28;20437;-79
2024/02/13 08:55:30;;;;;;;27.85;13.32;;;;;;;3.66;100.00;100796.03;5060898;28;21103;-80
2024/02/13 08:58:03;;;;;;;30.02;12.95;;;;;;;3.67;100.00;100810.31;5057804;28;20425;-81
2024/02/13 09:00:31;;;;;;;28.20;12.80;;;;;;;3.78;100.00;100804.13;5055375;28;20426;-78
2024/02/13 09:03:06;;;;;;;26.25;12.88;;;;;;;3.80;100.00;100804.72;5073995;28;20460;-78
2024/02/13 09:05:40;;;;;;;23.53;12.73;;;;;;;3.80;100.00;100807.41;5075827;28;20941;-80
2024/02/13 09:08:14;;;;;;;25.00;13.20;;;;;;;4.00;100.00;100806.28;5057090;28;20460;-79
2024/02/13 09:10:47;;;;;;;24.60;11.63;;;;;;;3.92;100.00;100804.72;5056835;28;21784;-80
2024/02/13 09:13:20;;;;;;;25.77;12.55;;;;;;;4.00;100.00;100807.06;5064651;28;20435;-78
2024/02/13 09:15:49;;;;;;;22.60;11.83;;;;;;;4.07;100.00;100807.81;5065646;28;20786;-80
2024/02/13 09:18:22;;;;;;;28.00;13.05;;;;;;;4.17;100.00;100809.09;5058265;28;20932;-78
2024/02/13 09:20:52;;;;;;;23.40;12.00;;;;;;;4.14;100.00;100820.34;5059817;28;20492;-79
2024/02/13 09:23:21;;;;;;;22.00;11.88;;;;;;;4.22;100.00;100820.78;5071623;28;20429;-79
2024/02/13 09:25:55;;;;;;;26.10;12.88;;;;;;;4.20;100.00;100820.22;5060611;28;20429;-78
2024/02/13 09:28:24;;;;;;;22.00;11.98;;;;;;;4.15;100.00;100825.47;5060560;28;20421;-80
2024/02/13 09:30:58;;;;;;;25.10;12.43;;;;;;;4.20;100.00;100827.50;5058818;28;20589;-80
2024/02/13 09:33:31;;;;;;;24.48;12.82;;;;;;;4.29;100.00;100828.75;5066087;28;20430;-80
2024/02/13 09:36:06;;;;;;;26.58;12.30;;;;;;;4.38;100.00;100826.56;5064128;28;20430;-79
2024/02/13 09:38:41;;;;;;;21.92;12.02;;;;;;;4.35;100.00;100827.84;5065065;28;20425;-79
2024/02/13 09:41:15;;;;;;;22.90;11.93;;;;;;;4.33;100.00;100829.94;5063676;28;20446;-78
2024/02/13 09:43:49;;;;;;;27.85;12.10;;;;;;;4.33;100.00;100835.31;5053186;28;20429;-79
2024/02/13 09:46:25;;;;;;;24.15;12.27;;;;;;;4.41;100.00;100834.16;5061658;28;20422;-79
2024/02/13 09:49:00;;;;;;;28.92;13.60;;;;;;;4.68;100.00;100836.34;5056362;28;20909;-78
2024/02/13 09:51:36;;;;;;;27.05;12.27;;;;;;;4.51;100.00;100838.97;5062853;28;20425;-80
2024/02/13 09:54:06;;;;;;;26.38;12.98;;;;;;;4.52;100.00;100836.03;5058765;28;20421;-81
2024/02/13 09:56:38;;;;;;;28.15;13.45;;;;;;;4.58;100.00;100834.25;5064586;28;20429;-79
2024/02/13 09:59:12;;;;;;;25.10;12.95;;;;;;;4.59;100.00;100842.09;5054690;28;20433;-78
2024/02/13 10:01:45;;;;;;;28.67;12.38;;;;;;;4.66;100.00;100849.25;5053652;28;20441;-79
2024/02/13 10:04:14;;;;;;;24.50;12.15;;;;;;;4.73;100.00;100852.66;5059166;28;20457;-78
2024/02/13 10:06:46;;;;;;;20.92;11.63;;;;;;;4.72;100.00;100843.75;5064849;28;20428;-79
2024/02/13 10:09:20;;;;;;;25.40;12.07;;;;;;;4.75;100.00;100848.66;5054444;28;20430;-79
2024/02/13 10:11:53;;;;;;;30.63;12.43;;;;;;;4.77;100.00;100856.50;5055104;28;20805;-78
2024/02/13 10:14:26;;;;;;;25.07;12.80;;;;;;;5.02;100.00;100858.13;5061990;28;20437;-78
2024/02/13 10:16:56;;;;;;;26.23;12.57;;;;;;;4.91;100.00;100852.50;5058141;28;20434;-80
2024/02/13 10:19:31;;;;;;;23.83;12.30;;;;;;;5.01;100.00;100859.16;5058319;28;20425;-79
2024/02/13 10:22:07;;;;;;;25.35;12.45;;;;;;;5.21;100.00;100864.97;5038171;28;20445;-80
2024/02/13 10:24:46;;;;;;;25.10;11.95;;;;;;;5.17;100.00;100863.00;5061889;27;20811;-79
2024/02/13 10:27:20;;;;;;;22.45;11.13;;;;;;;5.30;100.00;100865.41;5057682;28;20492;-81
2024/02/13 10:29:48;;;;;;;23.65;11.77;;;;;;;5.32;100.00;100859.75;5090336;27;20933;-79
2024/02/13 10:32:22;;;;;;;24.05;10.88;;;;;;;5.31;100.00;100867.06;5061847;28;20434;-80
2024/02/13 10:34:55;;;;;;;23.98;10.77;;;;;;;5.22;100.00;100872.03;5051207;28;20429;-78
2024/02/13 10:37:27;;;;;;;21.00;10.90;;;;;;;5.33;100.00;100870.34;5070264;28;20429;-79
2024/02/13 10:39:58;;;;;;;19.33;10.70;;;;;;;5.29;100.00;100871.88;5061563;28;20917;-79
2024/02/13 10:42:33;;;;;;;22.55;10.35;;;;;;;5.32;100.00;100866.00;5064301;28;20422;-78
2024/02/13 10:45:10;;;;;;;22.27;11.13;;;;;;;5.37;100.00;100871.50;5057914;28;20444;-78
2024/02/13 10:47:51;;;;;;;24.83;11.30;;;;;;;5.39;100.00;100869.38;5054085;28;20434;-78
2024/02/13 10:50:24;;;;;;;21.73;10.95;;;;;;;5.64;100.00;100868.22;5069857;28;21081;-77
2024/02/13 10:52:55;;;;;;;24.15;10.65;;;;;;;5.69;100.00;100867.47;5056041;28;20898;-79
2024/02/13 10:55:28;;;;;;;23.60;9.95;;;;;;;5.74;100.00;100870.28;5054792;28;20421;-78
2024/02/13 10:58:03;;;;;;;18.55;9.80;;;;;;;5.77;100.00;100867.09;5056855;28;20410;-79
2024/02/13 11:00:37;;;;;;;22.70;9.90;;;;;;;5.82;100.00;100859.09;5059454;28;20426;-78
2024/02/13 11:03:12;;;;;;;23.00;10.23;;;;;;;5.87;100.00;100864.56;5061424;28;20427;-79
2024/02/13 11:05:46;;;;;;;23.77;10.20;;;;;;;5.88;100.00;100854.59;5059143;28;21145;-78
2024/02/13 11:08:16;;;;;;;21.30;10.25;;;;;;;5.93;100.00;100860.06;5077993;28;21234;-78
2024/02/13 11:10:50;;;;;;;22.00;10.05;;;;;;;5.99;100.00;100858.31;5061569;28;20432;-79
2024/02/13 11:13:26;;;;;;;21.63;9.43;;;;;;;6.01;100.00;100853.47;5058036;28;20430;-79
2024/02/13 11:15:56;;;;;;;21.50;9.90;;;;;;;5.96;100.00;100855.00;5055637;28;20430;-79
2024/02/13 11:18:28;;;;;;;19.90;10.60;;;;;;;5.87;100.00;100855.63;5049594;28;20418;-78
2024/02/13 11:21:03;;;;;;;18.23;9.32;;;;;;;5.87;100.00;100861.03;5031420;28;20430;-78
2024/02/13 11:23:38;;;;;;;19.20;9.68;;;;;;;5.90;100.00;100855.16;5048357;28;20422;-79
2024/02/13 11:26:07;;;;;;;20.75;9.23;;;;;;;5.91;100.00;100856.78;5052733;28;20516;-78
2024/02/13 11:28:43;;;;;;;18.65;9.65;;;;;;;5.92;100.00;100861.97;5054832;28;20436;-79
2024/02/13 11:31:17;;;;;;;20.67;9.93;;;;;;;5.99;100.00;100858.31;5058521;28;20425;-78
2024/02/13 11:34:04;;;;;;;21.95;9.82;;;;;;;5.83;100.00;100860.72;5060272;28;20531;-80
2024/02/13 11:36:38;;;;;;;20.60;9.55;;;;;;;5.95;100.00;100861.47;5058694;28;20434;-78
2024/02/13 11:39:08;;;;;;;21.30;9.25;;;;;;;5.79;100.00;100871.19;5055854;28;21164;-79
2024/02/13 11:41:38;;;;;;;20.50;9.87;;;;;;;5.67;100.00;100866.91;5059160;28;20429;-79
2024/02/13 11:44:12;;;;;;;18.42;9.65;;;;;;;5.82;100.00;100861.78;5054384;28;20422;-80